sensor_id;sensor_type;location;lat;lon;timestamp;P1;durP1;ratioP1;P2;durP2;ratioP2
47635;SDS011;33364;50.766;15.338;2023-07-08T00:00:10;5.25;;;3.95;;
47635;SDS011;33364;50.766;15.338;2023-07-08T00:02:58;7.72;;;3.53;;
47635;SDS011;33364;50.766;15.338;2023-07-08T00:05:24;5.32;;;3.50;;
47635;SDS011;33364;50.766;15.338;2023-07-08T00:07:50;4.18;;;3.30;;
47635;SDS011;33364;50.766;15.338;2023-07-08T00:10:21;6.40;;;3.97;;
47635;SDS011;33364;50.766;15.338;2023-07-08T00:12:50;5.35;;;3.80;;
47635;SDS011;33364;50.766;15.338;2023-07-08T00:15:19;4.10;;;3.20;;
47635;SDS011;33364;50.766;15.338;2023-07-08T00:17:47;4.85;;;3.05;;
47635;SDS011;33364;50.766;15.338;2023-07-08T00:20:14;5.53;;;3.42;;
47635;SDS011;33364;50.766;15.338;2023-07-08T00:22:43;9.80;;;3.85;;
47635;SDS011;33364;50.766;15.338;2023-07-08T00:25:13;5.50;;;3.22;;
47635;SDS011;33364;50.766;15.338;2023-07-08T00:27:40;6.30;;;3.88;;
47635;SDS011;33364;50.766;15.338;2023-07-08T00:30:28;6.55;;;3.15;;
47635;SDS011;33364;50.766;15.338;2023-07-08T00:32:54;6.38;;;3.22;;
47635;SDS011;33364;50.766;15.338;2023-07-08T00:35:37;4.88;;;2.95;;
47635;SDS011;33364;50.766;15.338;2023-07-08T00:38:10;4.93;;;3.13;;
47635;SDS011;33364;50.766;15.338;2023-07-08T00:48:53;3.65;;;3.00;;
47635;SDS011;33364;50.766;15.338;2023-07-08T00:51:39;5.38;;;3.20;;
47635;SDS011;33364;50.766;15.338;2023-07-08T00:54:09;6.47;;;3.37;;
47635;SDS011;33364;50.766;15.338;2023-07-08T00:56:39;5.43;;;3.00;;
47635;SDS011;33364;50.766;15.338;2023-07-08T00:59:09;6.20;;;3.10;;
47635;SDS011;33364;50.766;15.338;2023-07-08T01:01:43;6.35;;;3.15;;
47635;SDS011;33364;50.766;15.338;2023-07-08T01:04:20;3.85;;;3.08;;
47635;SDS011;33364;50.766;15.338;2023-07-08T01:09:29;5.38;;;3.00;;
47635;SDS011;33364;50.766;15.338;2023-07-08T01:11:58;6.85;;;4.22;;
47635;SDS011;33364;50.766;15.338;2023-07-08T01:14:30;6.07;;;3.33;;
47635;SDS011;33364;50.766;15.338;2023-07-08T01:16:58;4.85;;;3.13;;
47635;SDS011;33364;50.766;15.338;2023-07-08T01:19:24;5.05;;;3.08;;
47635;SDS011;33364;50.766;15.338;2023-07-08T01:22:02;3.60;;;2.85;;
47635;SDS011;33364;50.766;15.338;2023-07-08T01:24:29;4.50;;;3.25;;
47635;SDS011;33364;50.766;15.338;2023-07-08T01:26:57;5.68;;;3.08;;
47635;SDS011;33364;50.766;15.338;2023-07-08T01:29:23;4.13;;;2.97;;
47635;SDS011;33364;50.766;15.338;2023-07-08T01:31:49;3.38;;;2.83;;
47635;SDS011;33364;50.766;15.338;2023-07-08T01:34:15;3.65;;;2.92;;
47635;SDS011;33364;50.766;15.338;2023-07-08T01:36:44;6.65;;;4.50;;
47635;SDS011;33364;50.766;15.338;2023-07-08T01:39:14;4.63;;;3.38;;
47635;SDS011;33364;50.766;15.338;2023-07-08T01:41:43;6.90;;;3.85;;
47635;SDS011;33364;50.766;15.338;2023-07-08T01:44:20;3.42;;;2.90;;
47635;SDS011;33364;50.766;15.338;2023-07-08T01:46:49;5.22;;;2.83;;
47635;SDS011;33364;50.766;15.338;2023-07-08T01:49:17;3.72;;;3.33;;
47635;SDS011;33364;50.766;15.338;2023-07-08T01:51:45;7.53;;;3.13;;
47635;SDS011;33364;50.766;15.338;2023-07-08T01:54:12;6.07;;;3.17;;
47635;SDS011;33364;50.766;15.338;2023-07-08T01:56:38;3.95;;;2.72;;
47635;SDS011;33364;50.766;15.338;2023-07-08T01:59:04;4.82;;;2.92;;
47635;SDS011;33364;50.766;15.338;2023-07-08T02:01:30;4.90;;;2.92;;
47635;SDS011;33364;50.766;15.338;2023-07-08T02:03:55;4.60;;;3.33;;
47635;SDS011;33364;50.766;15.338;2023-07-08T02:06:21;3.05;;;2.13;;
47635;SDS011;33364;50.766;15.338;2023-07-08T02:08:47;5.28;;;2.97;;
47635;SDS011;33364;50.766;15.338;2023-07-08T02:11:13;5.05;;;3.03;;
47635;SDS011;33364;50.766;15.338;2023-07-08T02:13:38;8.68;;;3.30;;
47635;SDS011;33364;50.766;15.338;2023-07-08T02:16:06;5.65;;;3.20;;
47635;SDS011;33364;50.766;15.338;2023-07-08T02:18:32;4.70;;;2.67;;
47635;SDS011;33364;50.766;15.338;2023-07-08T02:20:58;3.65;;;2.83;;
47635;SDS011;33364;50.766;15.338;2023-07-08T02:23:24;3.95;;;2.95;;
47635;SDS011;33364;50.766;15.338;2023-07-08T02:25:52;14.10;;;4.55;;
47635;SDS011;33364;50.766;15.338;2023-07-08T02:28:18;4.15;;;2.88;;
47635;SDS011;33364;50.766;15.338;2023-07-08T02:30:44;4.60;;;2.70;;
47635;SDS011;33364;50.766;15.338;2023-07-08T02:33:12;6.68;;;2.50;;
47635;SDS011;33364;50.766;15.338;2023-07-08T02:35:40;5.43;;;2.78;;
47635;SDS011;33364;50.766;15.338;2023-07-08T02:38:05;5.43;;;2.85;;
47635;SDS011;33364;50.766;15.338;2023-07-08T02:40:31;5.10;;;2.65;;
47635;SDS011;33364;50.766;15.338;2023-07-08T02:42:57;3.50;;;2.30;;
47635;SDS011;33364;50.766;15.338;2023-07-08T02:45:23;5.90;;;2.55;;
47635;SDS011;33364;50.766;15.338;2023-07-08T02:47:48;5.18;;;2.72;;
47635;SDS011;33364;50.766;15.338;2023-07-08T02:50:14;5.15;;;3.28;;
47635;SDS011;33364;50.766;15.338;2023-07-08T02:52:42;4.78;;;2.60;;
47635;SDS011;33364;50.766;15.338;2023-07-08T02:55:08;4.15;;;2.50;;
47635;SDS011;33364;50.766;15.338;2023-07-08T02:57:34;3.30;;;2.70;;
47635;SDS011;33364;50.766;15.338;2023-07-08T03:00:00;4.65;;;2.70;;
47635;SDS011;33364;50.766;15.338;2023-07-08T03:02:26;5.57;;;2.55;;
47635;SDS011;33364;50.766;15.338;2023-07-08T03:04:52;3.35;;;2.75;;
47635;SDS011;33364;50.766;15.338;2023-07-08T03:07:19;4.70;;;3.17;;
47635;SDS011;33364;50.766;15.338;2023-07-08T03:09:45;2.90;;;2.50;;
47635;SDS011;33364;50.766;15.338;2023-07-08T03:12:11;5.07;;;2.95;;
47635;SDS011;33364;50.766;15.338;2023-07-08T03:14:37;5.75;;;2.75;;
47635;SDS011;33364;50.766;15.338;2023-07-08T03:17:03;6.55;;;2.72;;
47635;SDS011;33364;50.766;15.338;2023-07-08T03:19:29;5.05;;;2.38;;
47635;SDS011;33364;50.766;15.338;2023-07-08T03:21:55;3.42;;;2.58;;
47635;SDS011;33364;50.766;15.338;2023-07-08T03:24:21;5.60;;;3.60;;
47635;SDS011;33364;50.766;15.338;2023-07-08T03:26:47;4.22;;;3.00;;
47635;SDS011;33364;50.766;15.338;2023-07-08T03:29:16;4.38;;;2.65;;
47635;SDS011;33364;50.766;15.338;2023-07-08T03:31:44;5.05;;;3.03;;
47635;SDS011;33364;50.766;15.338;2023-07-08T03:34:14;5.05;;;3.13;;
47635;SDS011;33364;50.766;15.338;2023-07-08T03:36:45;5.03;;;3.55;;
47635;SDS011;33364;50.766;15.338;2023-07-08T03:39:19;5.50;;;3.20;;
47635;SDS011;33364;50.766;15.338;2023-07-08T03:41:47;3.47;;;2.92;;
47635;SDS011;33364;50.766;15.338;2023-07-08T03:44:14;5.35;;;2.97;;
47635;SDS011;33364;50.766;15.338;2023-07-08T03:46:43;4.25;;;2.63;;
47635;SDS011;33364;50.766;15.338;2023-07-08T03:49:15;4.93;;;2.75;;
47635;SDS011;33364;50.766;15.338;2023-07-08T03:51:41;3.33;;;2.53;;
47635;SDS011;33364;50.766;15.338;2023-07-08T03:54:10;6.13;;;3.10;;
47635;SDS011;33364;50.766;15.338;2023-07-08T03:56:37;3.00;;;2.50;;
47635;SDS011;33364;50.766;15.338;2023-07-08T03:59:03;3.55;;;2.58;;
47635;SDS011;33364;50.766;15.338;2023-07-08T04:01:29;4.88;;;2.97;;
47635;SDS011;33364;50.766;15.338;2023-07-08T04:03:56;7.00;;;4.47;;
47635;SDS011;33364;50.766;15.338;2023-07-08T04:06:23;12.73;;;5.72;;
47635;SDS011;33364;50.766;15.338;2023-07-08T04:08:49;26.42;;;13.10;;
47635;SDS011;33364;50.766;15.338;2023-07-08T04:11:19;20.23;;;10.80;;
47635;SDS011;33364;50.766;15.338;2023-07-08T04:13:47;50.75;;;24.23;;
47635;SDS011;33364;50.766;15.338;2023-07-08T04:16:14;57.85;;;27.33;;
47635;SDS011;33364;50.766;15.338;2023-07-08T04:18:44;45.92;;;22.45;;
47635;SDS011;33364;50.766;15.338;2023-07-08T04:21:09;32.90;;;16.70;;
47635;SDS011;33364;50.766;15.338;2023-07-08T04:23:36;43.15;;;20.60;;
47635;SDS011;33364;50.766;15.338;2023-07-08T04:26:01;24.20;;;12.25;;
47635;SDS011;33364;50.766;15.338;2023-07-08T04:28:28;19.52;;;10.63;;
47635;SDS011;33364;50.766;15.338;2023-07-08T04:30:53;20.10;;;10.48;;
47635;SDS011;33364;50.766;15.338;2023-07-08T04:33:19;18.02;;;9.10;;
47635;SDS011;33364;50.766;15.338;2023-07-08T04:35:45;16.77;;;6.57;;
47635;SDS011;33364;50.766;15.338;2023-07-08T04:38:14;13.13;;;5.18;;
47635;SDS011;33364;50.766;15.338;2023-07-08T04:40:43;6.95;;;4.80;;
47635;SDS011;33364;50.766;15.338;2023-07-08T04:43:10;11.43;;;4.70;;
47635;SDS011;33364;50.766;15.338;2023-07-08T04:45:40;11.27;;;4.25;;
47635;SDS011;33364;50.766;15.338;2023-07-08T04:48:11;10.60;;;4.35;;
47635;SDS011;33364;50.766;15.338;2023-07-08T04:50:40;6.70;;;3.92;;
47635;SDS011;33364;50.766;15.338;2023-07-08T04:53:07;8.25;;;4.97;;
47635;SDS011;33364;50.766;15.338;2023-07-08T04:55:33;3.97;;;2.80;;
47635;SDS011;33364;50.766;15.338;2023-07-08T04:58:00;4.97;;;4.03;;
47635;SDS011;33364;50.766;15.338;2023-07-08T05:00:27;5.00;;;4.00;;
47635;SDS011;33364;50.766;15.338;2023-07-08T05:02:53;7.50;;;4.18;;
47635;SDS011;33364;50.766;15.338;2023-07-08T05:05:19;10.60;;;3.85;;
47635;SDS011;33364;50.766;15.338;2023-07-08T05:07:46;9.45;;;4.18;;
47635;SDS011;33364;50.766;15.338;2023-07-08T05:10:12;6.57;;;3.47;;
47635;SDS011;33364;50.766;15.338;2023-07-08T05:12:38;7.65;;;4.22;;
47635;SDS011;33364;50.766;15.338;2023-07-08T05:15:04;4.28;;;3.58;;
47635;SDS011;33364;50.766;15.338;2023-07-08T05:17:30;4.68;;;3.13;;
47635;SDS011;33364;50.766;15.338;2023-07-08T05:19:56;7.95;;;3.53;;
47635;SDS011;33364;50.766;15.338;2023-07-08T05:22:24;4.68;;;3.05;;
47635;SDS011;33364;50.766;15.338;2023-07-08T05:24:51;4.65;;;3.00;;
47635;SDS011;33364;50.766;15.338;2023-07-08T05:27:18;12.13;;;3.42;;
47635;SDS011;33364;50.766;15.338;2023-07-08T05:29:45;6.65;;;2.80;;
47635;SDS011;33364;50.766;15.338;2023-07-08T05:32:12;5.10;;;2.83;;
47635;SDS011;33364;50.766;15.338;2023-07-08T05:34:37;6.15;;;2.90;;
47635;SDS011;33364;50.766;15.338;2023-07-08T05:37:03;7.88;;;3.20;;
47635;SDS011;33364;50.766;15.338;2023-07-08T05:39:30;5.70;;;2.67;;
47635;SDS011;33364;50.766;15.338;2023-07-08T05:41:56;7.10;;;3.33;;
47635;SDS011;33364;50.766;15.338;2023-07-08T05:44:22;5.28;;;2.80;;
47635;SDS011;33364;50.766;15.338;2023-07-08T05:46:49;6.80;;;3.85;;
47635;SDS011;33364;50.766;15.338;2023-07-08T05:49:15;7.03;;;4.03;;
47635;SDS011;33364;50.766;15.338;2023-07-08T05:51:42;11.50;;;3.15;;
47635;SDS011;33364;50.766;15.338;2023-07-08T05:54:09;5.85;;;3.40;;
47635;SDS011;33364;50.766;15.338;2023-07-08T05:56:35;5.47;;;3.03;;
47635;SDS011;33364;50.766;15.338;2023-07-08T05:59:01;5.50;;;2.40;;
47635;SDS011;33364;50.766;15.338;2023-07-08T06:01:27;8.68;;;2.85;;
47635;SDS011;33364;50.766;15.338;2023-07-08T06:03:53;4.43;;;2.95;;
47635;SDS011;33364;50.766;15.338;2023-07-08T06:06:19;5.10;;;2.40;;
47635;SDS011;33364;50.766;15.338;2023-07-08T06:08:44;3.92;;;2.60;;
47635;SDS011;33364;50.766;15.338;2023-07-08T06:11:10;6.43;;;4.32;;
47635;SDS011;33364;50.766;15.338;2023-07-08T06:13:36;3.47;;;2.50;;
47635;SDS011;33364;50.766;15.338;2023-07-08T06:16:02;5.45;;;2.90;;
47635;SDS011;33364;50.766;15.338;2023-07-08T06:18:27;6.88;;;2.72;;
47635;SDS011;33364;50.766;15.338;2023-07-08T06:20:54;4.30;;;2.60;;
47635;SDS011;33364;50.766;15.338;2023-07-08T06:23:21;4.13;;;2.75;;
47635;SDS011;33364;50.766;15.338;2023-07-08T06:25:47;4.05;;;2.72;;
47635;SDS011;33364;50.766;15.338;2023-07-08T06:28:13;5.15;;;2.97;;
47635;SDS011;33364;50.766;15.338;2023-07-08T06:30:39;6.75;;;3.17;;
47635;SDS011;33364;50.766;15.338;2023-07-08T06:33:04;3.50;;;2.80;;
47635;SDS011;33364;50.766;15.338;2023-07-08T06:35:30;4.10;;;2.53;;
47635;SDS011;33364;50.766;15.338;2023-07-08T06:37:56;4.03;;;2.50;;
47635;SDS011;33364;50.766;15.338;2023-07-08T06:40:23;6.10;;;2.35;;
47635;SDS011;33364;50.766;15.338;2023-07-08T06:42:48;4.70;;;2.60;;
47635;SDS011;33364;50.766;15.338;2023-07-08T06:45:14;5.38;;;2.92;;
47635;SDS011;33364;50.766;15.338;2023-07-08T06:47:40;8.68;;;2.90;;
47635;SDS011;33364;50.766;15.338;2023-07-08T06:50:06;4.05;;;2.88;;
47635;SDS011;33364;50.766;15.338;2023-07-08T06:52:32;6.55;;;2.42;;
47635;SDS011;33364;50.766;15.338;2023-07-08T06:55:01;5.15;;;2.10;;
47635;SDS011;33364;50.766;15.338;2023-07-08T06:57:27;4.78;;;3.13;;
47635;SDS011;33364;50.766;15.338;2023-07-08T06:59:54;7.55;;;2.58;;
47635;SDS011;33364;50.766;15.338;2023-07-08T07:02:19;6.47;;;2.78;;
47635;SDS011;33364;50.766;15.338;2023-07-08T07:04:45;3.63;;;2.38;;
47635;SDS011;33364;50.766;15.338;2023-07-08T07:07:11;6.55;;;2.72;;
47635;SDS011;33364;50.766;15.338;2023-07-08T07:09:37;3.97;;;2.60;;
47635;SDS011;33364;50.766;15.338;2023-07-08T07:12:04;5.03;;;2.60;;
47635;SDS011;33364;50.766;15.338;2023-07-08T07:14:32;4.38;;;2.28;;
47635;SDS011;33364;50.766;15.338;2023-07-08T07:16:59;5.40;;;2.28;;
47635;SDS011;33364;50.766;15.338;2023-07-08T07:19:25;3.13;;;2.22;;
47635;SDS011;33364;50.766;15.338;2023-07-08T07:21:51;4.40;;;2.63;;
47635;SDS011;33364;50.766;15.338;2023-07-08T07:24:18;5.20;;;2.30;;
47635;SDS011;33364;50.766;15.338;2023-07-08T07:26:44;9.52;;;2.20;;
47635;SDS011;33364;50.766;15.338;2023-07-08T07:29:10;4.50;;;2.65;;
47635;SDS011;33364;50.766;15.338;2023-07-08T07:31:36;4.40;;;2.30;;
47635;SDS011;33364;50.766;15.338;2023-07-08T07:34:05;4.55;;;2.30;;
47635;SDS011;33364;50.766;15.338;2023-07-08T07:36:31;10.00;;;2.67;;
47635;SDS011;33364;50.766;15.338;2023-07-08T07:38:57;4.53;;;2.63;;
47635;SDS011;33364;50.766;15.338;2023-07-08T07:41:23;5.28;;;2.60;;
47635;SDS011;33364;50.766;15.338;2023-07-08T07:43:49;4.85;;;2.55;;
47635;SDS011;33364;50.766;15.338;2023-07-08T07:46:16;3.60;;;2.45;;
47635;SDS011;33364;50.766;15.338;2023-07-08T07:48:42;4.20;;;2.45;;
47635;SDS011;33364;50.766;15.338;2023-07-08T07:51:09;3.45;;;2.28;;
47635;SDS011;33364;50.766;15.338;2023-07-08T07:53:37;2.70;;;2.10;;
47635;SDS011;33364;50.766;15.338;2023-07-08T07:56:03;3.55;;;2.55;;
47635;SDS011;33364;50.766;15.338;2023-07-08T07:58:30;3.60;;;2.38;;
47635;SDS011;33364;50.766;15.338;2023-07-08T08:00:57;6.40;;;2.60;;
47635;SDS011;33364;50.766;15.338;2023-07-08T08:03:24;11.60;;;3.03;;
47635;SDS011;33364;50.766;15.338;2023-07-08T08:05:50;4.15;;;3.35;;
47635;SDS011;33364;50.766;15.338;2023-07-08T08:08:18;3.83;;;2.80;;
47635;SDS011;33364;50.766;15.338;2023-07-08T08:10:44;6.80;;;3.40;;
47635;SDS011;33364;50.766;15.338;2023-07-08T08:13:11;5.65;;;3.05;;
47635;SDS011;33364;50.766;15.338;2023-07-08T08:15:37;5.85;;;2.47;;
47635;SDS011;33364;50.766;15.338;2023-07-08T08:18:03;3.92;;;2.20;;
47635;SDS011;33364;50.766;15.338;2023-07-08T08:20:29;3.63;;;2.28;;
47635;SDS011;33364;50.766;15.338;2023-07-08T08:22:56;3.85;;;2.90;;
47635;SDS011;33364;50.766;15.338;2023-07-08T08:25:22;5.43;;;2.50;;
47635;SDS011;33364;50.766;15.338;2023-07-08T08:27:52;3.53;;;2.80;;
47635;SDS011;33364;50.766;15.338;2023-07-08T08:30:18;3.85;;;3.00;;
47635;SDS011;33364;50.766;15.338;2023-07-08T08:32:44;4.53;;;3.13;;
47635;SDS011;33364;50.766;15.338;2023-07-08T08:35:10;3.25;;;2.67;;
47635;SDS011;33364;50.766;15.338;2023-07-08T08:37:37;5.85;;;2.85;;
47635;SDS011;33364;50.766;15.338;2023-07-08T08:40:03;5.72;;;2.67;;
47635;SDS011;33364;50.766;15.338;2023-07-08T08:42:34;3.75;;;2.47;;
47635;SDS011;33364;50.766;15.338;2023-07-08T08:45:08;4.13;;;2.60;;
47635;SDS011;33364;50.766;15.338;2023-07-08T08:47:40;3.05;;;2.58;;
47635;SDS011;33364;50.766;15.338;2023-07-08T08:50:16;4.03;;;2.35;;
47635;SDS011;33364;50.766;15.338;2023-07-08T08:52:51;9.45;;;2.85;;
47635;SDS011;33364;50.766;15.338;2023-07-08T08:55:20;5.20;;;2.90;;
47635;SDS011;33364;50.766;15.338;2023-07-08T08:57:56;6.72;;;2.72;;
47635;SDS011;33364;50.766;15.338;2023-07-08T09:00:24;3.88;;;3.05;;
47635;SDS011;33364;50.766;15.338;2023-07-08T09:03:01;4.72;;;2.78;;
47635;SDS011;33364;50.766;15.338;2023-07-08T09:05:33;3.70;;;2.63;;
47635;SDS011;33364;50.766;15.338;2023-07-08T09:10:35;4.88;;;2.70;;
47635;SDS011;33364;50.766;15.338;2023-07-08T09:13:21;4.57;;;2.65;;
47635;SDS011;33364;50.766;15.338;2023-07-08T09:15:55;10.00;;;3.00;;
47635;SDS011;33364;50.766;15.338;2023-07-08T09:18:29;3.17;;;2.42;;
47635;SDS011;33364;50.766;15.338;2023-07-08T09:21:02;3.75;;;2.45;;
47635;SDS011;33364;50.766;15.338;2023-07-08T09:23:47;4.75;;;3.17;;
47635;SDS011;33364;50.766;15.338;2023-07-08T09:26:19;3.42;;;2.50;;
47635;SDS011;33364;50.766;15.338;2023-07-08T09:28:52;5.63;;;2.70;;
47635;SDS011;33364;50.766;15.338;2023-07-08T09:31:23;4.40;;;2.50;;
47635;SDS011;33364;50.766;15.338;2023-07-08T09:34:05;7.50;;;2.90;;
47635;SDS011;33364;50.766;15.338;2023-07-08T09:36:31;7.20;;;3.78;;
47635;SDS011;33364;50.766;15.338;2023-07-08T09:38:58;3.65;;;2.40;;
47635;SDS011;33364;50.766;15.338;2023-07-08T09:41:32;5.15;;;2.85;;
47635;SDS011;33364;50.766;15.338;2023-07-08T09:44:03;5.43;;;2.83;;
47635;SDS011;33364;50.766;15.338;2023-07-08T09:46:37;5.47;;;2.92;;
47635;SDS011;33364;50.766;15.338;2023-07-08T09:54:16;4.68;;;3.10;;
47635;SDS011;33364;50.766;15.338;2023-07-08T09:56:52;5.18;;;2.70;;
47635;SDS011;33364;50.766;15.338;2023-07-08T09:59:24;4.00;;;2.83;;
47635;SDS011;33364;50.766;15.338;2023-07-08T10:02:00;3.67;;;2.67;;
47635;SDS011;33364;50.766;15.338;2023-07-08T10:04:28;4.60;;;3.25;;
47635;SDS011;33364;50.766;15.338;2023-07-08T10:06:54;5.80;;;3.40;;
47635;SDS011;33364;50.766;15.338;2023-07-08T10:09:20;4.50;;;3.10;;
47635;SDS011;33364;50.766;15.338;2023-07-08T10:11:51;7.97;;;2.95;;
47635;SDS011;33364;50.766;15.338;2023-07-08T10:14:34;4.70;;;2.85;;
47635;SDS011;33364;50.766;15.338;2023-07-08T10:17:04;5.82;;;3.22;;
47635;SDS011;33364;50.766;15.338;2023-07-08T10:19:31;5.85;;;3.03;;
47635;SDS011;33364;50.766;15.338;2023-07-08T10:27:29;5.53;;;3.07;;
47635;SDS011;33364;50.766;15.338;2023-07-08T10:35:34;5.00;;;3.03;;
47635;SDS011;33364;50.766;15.338;2023-07-08T10:38:09;6.10;;;2.90;;
47635;SDS011;33364;50.766;15.338;2023-07-08T10:41:07;5.13;;;3.08;;
47635;SDS011;33364;50.766;15.338;2023-07-08T10:46:21;5.93;;;3.00;;
47635;SDS011;33364;50.766;15.338;2023-07-08T10:59:55;3.42;;;2.90;;
47635;SDS011;33364;50.766;15.338;2023-07-08T11:10:22;5.18;;;2.90;;
47635;SDS011;33364;50.766;15.338;2023-07-08T11:13:00;8.55;;;2.95;;
47635;SDS011;33364;50.766;15.338;2023-07-08T11:15:40;4.57;;;3.08;;
47635;SDS011;33364;50.766;15.338;2023-07-08T11:23:19;4.18;;;3.13;;
47635;SDS011;33364;50.766;15.338;2023-07-08T11:25:58;4.22;;;2.97;;
47635;SDS011;33364;50.766;15.338;2023-07-08T11:28:47;4.93;;;2.80;;
47635;SDS011;33364;50.766;15.338;2023-07-08T11:31:17;4.82;;;3.17;;
47635;SDS011;33364;50.766;15.338;2023-07-08T11:33:43;10.77;;;3.22;;
47635;SDS011;33364;50.766;15.338;2023-07-08T11:36:11;3.25;;;2.80;;
47635;SDS011;33364;50.766;15.338;2023-07-08T11:38:44;4.40;;;3.15;;
47635;SDS011;33364;50.766;15.338;2023-07-08T11:41:17;4.32;;;2.83;;
47635;SDS011;33364;50.766;15.338;2023-07-08T11:43:50;5.10;;;2.60;;
47635;SDS011;33364;50.766;15.338;2023-07-08T11:46:19;5.70;;;3.00;;
47635;SDS011;33364;50.766;15.338;2023-07-08T11:48:48;5.75;;;2.50;;
47635;SDS011;33364;50.766;15.338;2023-07-08T11:51:17;5.75;;;3.30;;
47635;SDS011;33364;50.766;15.338;2023-07-08T11:54:10;8.93;;;3.13;;
47635;SDS011;33364;50.766;15.338;2023-07-08T11:56:50;9.43;;;4.10;;
47635;SDS011;33364;50.766;15.338;2023-07-08T11:59:23;6.63;;;3.78;;
47635;SDS011;33364;50.766;15.338;2023-07-08T12:04:33;6.13;;;3.15;;
47635;SDS011;33364;50.766;15.338;2023-07-08T12:07:12;9.95;;;3.50;;
47635;SDS011;33364;50.766;15.338;2023-07-08T12:09:47;4.57;;;3.38;;
47635;SDS011;33364;50.766;15.338;2023-07-08T12:12:36;4.63;;;2.92;;
47635;SDS011;33364;50.766;15.338;2023-07-08T12:15:15;4.63;;;3.47;;
47635;SDS011;33364;50.766;15.338;2023-07-08T12:17:45;6.07;;;3.30;;
47635;SDS011;33364;50.766;15.338;2023-07-08T12:20:16;3.67;;;3.20;;
47635;SDS011;33364;50.766;15.338;2023-07-08T12:22:45;4.97;;;2.97;;
47635;SDS011;33364;50.766;15.338;2023-07-08T12:25:15;3.97;;;3.40;;
47635;SDS011;33364;50.766;15.338;2023-07-08T12:27:44;4.10;;;2.90;;
47635;SDS011;33364;50.766;15.338;2023-07-08T12:30:12;6.30;;;3.13;;
47635;SDS011;33364;50.766;15.338;2023-07-08T12:32:40;6.45;;;3.35;;
47635;SDS011;33364;50.766;15.338;2023-07-08T12:35:14;3.70;;;2.97;;
47635;SDS011;33364;50.766;15.338;2023-07-08T12:37:46;3.33;;;2.92;;
47635;SDS011;33364;50.766;15.338;2023-07-08T12:40:12;4.15;;;3.28;;
47635;SDS011;33364;50.766;15.338;2023-07-08T12:42:39;4.85;;;3.08;;
47635;SDS011;33364;50.766;15.338;2023-07-08T12:45:15;7.55;;;2.83;;
47635;SDS011;33364;50.766;15.338;2023-07-08T12:47:44;5.13;;;3.35;;
47635;SDS011;33364;50.766;15.338;2023-07-08T12:50:11;4.72;;;3.10;;
47635;SDS011;33364;50.766;15.338;2023-07-08T12:52:38;5.05;;;3.03;;
47635;SDS011;33364;50.766;15.338;2023-07-08T12:55:05;4.20;;;3.33;;
47635;SDS011;33364;50.766;15.338;2023-07-08T12:57:34;5.53;;;3.08;;
47635;SDS011;33364;50.766;15.338;2023-07-08T13:00:00;4.75;;;3.65;;
47635;SDS011;33364;50.766;15.338;2023-07-08T13:02:27;4.45;;;3.15;;
47635;SDS011;33364;50.766;15.338;2023-07-08T13:05:00;5.30;;;3.28;;
47635;SDS011;33364;50.766;15.338;2023-07-08T13:07:33;4.63;;;4.00;;
47635;SDS011;33364;50.766;15.338;2023-07-08T13:10:03;4.03;;;3.25;;
47635;SDS011;33364;50.766;15.338;2023-07-08T13:12:32;4.63;;;3.00;;
47635;SDS011;33364;50.766;15.338;2023-07-08T13:15:03;4.18;;;3.25;;
47635;SDS011;33364;50.766;15.338;2023-07-08T13:17:34;4.95;;;3.22;;
47635;SDS011;33364;50.766;15.338;2023-07-08T13:20:03;5.95;;;3.00;;
47635;SDS011;33364;50.766;15.338;2023-07-08T13:22:29;4.38;;;3.38;;
47635;SDS011;33364;50.766;15.338;2023-07-08T13:25:00;5.53;;;3.72;;
47635;SDS011;33364;50.766;15.338;2023-07-08T13:27:26;5.53;;;3.00;;
47635;SDS011;33364;50.766;15.338;2023-07-08T13:29:53;3.92;;;3.33;;
47635;SDS011;33364;50.766;15.338;2023-07-08T13:32:28;6.18;;;3.10;;
47635;SDS011;33364;50.766;15.338;2023-07-08T13:34:56;4.13;;;3.20;;
47635;SDS011;33364;50.766;15.338;2023-07-08T13:37:21;5.53;;;3.17;;
47635;SDS011;33364;50.766;15.338;2023-07-08T13:39:52;4.70;;;3.13;;
47635;SDS011;33364;50.766;15.338;2023-07-08T13:42:18;4.22;;;3.25;;
47635;SDS011;33364;50.766;15.338;2023-07-08T13:44:45;4.18;;;2.83;;
47635;SDS011;33364;50.766;15.338;2023-07-08T13:47:19;6.68;;;3.53;;
47635;SDS011;33364;50.766;15.338;2023-07-08T13:49:55;4.22;;;3.10;;
47635;SDS011;33364;50.766;15.338;2023-07-08T13:52:25;3.95;;;3.55;;
47635;SDS011;33364;50.766;15.338;2023-07-08T13:54:52;5.10;;;3.33;;
47635;SDS011;33364;50.766;15.338;2023-07-08T13:57:21;4.20;;;3.80;;
47635;SDS011;33364;50.766;15.338;2023-07-08T13:59:49;7.63;;;3.10;;
47635;SDS011;33364;50.766;15.338;2023-07-08T14:02:16;4.00;;;3.40;;
47635;SDS011;33364;50.766;15.338;2023-07-08T14:04:47;4.72;;;3.10;;
47635;SDS011;33364;50.766;15.338;2023-07-08T14:07:18;4.28;;;2.92;;
47635;SDS011;33364;50.766;15.338;2023-07-08T14:09:48;5.22;;;3.35;;
47635;SDS011;33364;50.766;15.338;2023-07-08T14:12:13;6.15;;;3.42;;
47635;SDS011;33364;50.766;15.338;2023-07-08T14:14:39;6.20;;;2.97;;
47635;SDS011;33364;50.766;15.338;2023-07-08T14:17:07;5.20;;;3.28;;
47635;SDS011;33364;50.766;15.338;2023-07-08T14:19:37;7.80;;;3.65;;
47635;SDS011;33364;50.766;15.338;2023-07-08T14:24:45;6.25;;;3.47;;
47635;SDS011;33364;50.766;15.338;2023-07-08T14:27:11;6.07;;;3.28;;
47635;SDS011;33364;50.766;15.338;2023-07-08T14:29:39;5.53;;;3.60;;
47635;SDS011;33364;50.766;15.338;2023-07-08T14:32:12;3.97;;;3.28;;
47635;SDS011;33364;50.766;15.338;2023-07-08T14:34:40;4.65;;;3.25;;
47635;SDS011;33364;50.766;15.338;2023-07-08T14:37:14;5.00;;;3.33;;
47635;SDS011;33364;50.766;15.338;2023-07-08T14:39:43;4.13;;;3.20;;
47635;SDS011;33364;50.766;15.338;2023-07-08T14:42:10;3.80;;;3.30;;
47635;SDS011;33364;50.766;15.338;2023-07-08T14:44:40;4.90;;;3.20;;
47635;SDS011;33364;50.766;15.338;2023-07-08T14:47:08;5.75;;;3.92;;
47635;SDS011;33364;50.766;15.338;2023-07-08T14:49:36;6.30;;;3.53;;
47635;SDS011;33364;50.766;15.338;2023-07-08T14:52:02;5.25;;;3.45;;
47635;SDS011;33364;50.766;15.338;2023-07-08T14:54:29;8.07;;;3.35;;
47635;SDS011;33364;50.766;15.338;2023-07-08T14:56:56;4.55;;;3.50;;
47635;SDS011;33364;50.766;15.338;2023-07-08T14:59:23;5.97;;;3.15;;
47635;SDS011;33364;50.766;15.338;2023-07-08T15:01:51;4.10;;;3.45;;
47635;SDS011;33364;50.766;15.338;2023-07-08T15:04:20;4.60;;;3.72;;
47635;SDS011;33364;50.766;15.338;2023-07-08T15:06:46;5.00;;;3.95;;
47635;SDS011;33364;50.766;15.338;2023-07-08T15:09:12;4.03;;;3.30;;
47635;SDS011;33364;50.766;15.338;2023-07-08T15:11:39;5.70;;;4.43;;
47635;SDS011;33364;50.766;15.338;2023-07-08T15:14:22;7.28;;;4.13;;
47635;SDS011;33364;50.766;15.338;2023-07-08T15:16:50;4.60;;;3.75;;
47635;SDS011;33364;50.766;15.338;2023-07-08T15:19:18;5.15;;;3.42;;
47635;SDS011;33364;50.766;15.338;2023-07-08T15:21:45;4.80;;;3.47;;
47635;SDS011;33364;50.766;15.338;2023-07-08T15:24:12;4.80;;;3.67;;
47635;SDS011;33364;50.766;15.338;2023-07-08T15:26:39;7.28;;;3.45;;
47635;SDS011;33364;50.766;15.338;2023-07-08T15:29:08;6.22;;;3.95;;
47635;SDS011;33364;50.766;15.338;2023-07-08T15:31:40;4.97;;;4.10;;
47635;SDS011;33364;50.766;15.338;2023-07-08T15:34:16;7.85;;;3.70;;
47635;SDS011;33364;50.766;15.338;2023-07-08T15:36:45;6.30;;;4.05;;
47635;SDS011;33364;50.766;15.338;2023-07-08T15:39:11;7.97;;;3.55;;
47635;SDS011;33364;50.766;15.338;2023-07-08T15:41:42;6.80;;;4.40;;
47635;SDS011;33364;50.766;15.338;2023-07-08T15:44:10;9.65;;;3.70;;